Time;durP1;ratioP1;P1;durP2;ratioP2;P2;SDS_P1;SDS_P2;PMS_P1;PMS_P2;Temp;Humidity;BMP_temperature;BMP_pressure;BME280_temperature;BME280_humidity;BME280_pressure;Samples;Min_cycle;Max_cycle;Signal;HPM_P1;HPM_P2
2023/05/16 00:01:53;;;;;;;20.67;2.55;;;7.10;99.90;;;;;;5073334;28;20044;-23
2023/05/16 00:04:20;;;;;;;14.60;2.15;;;7.20;99.90;;;;;;5073305;28;20053;-23
2023/05/16 00:06:46;;;;;;;14.98;2.28;;;7.20;99.90;;;;;;5073300;28;20057;-24
2023/05/16 00:09:11;;;;;;;11.00;1.95;;;7.10;99.90;;;;;;5073243;28;20049;-23
2023/05/16 00:11:37;;;;;;;13.93;2.50;;;7.00;99.90;;;;;;5073504;28;20044;-24
2023/05/16 00:14:04;;;;;;;8.15;1.60;;;6.90;99.90;;;;;;5073780;28;20053;-24
2023/05/16 00:16:29;;;;;;;17.00;2.08;;;6.80;99.90;;;;;;5075160;28;20044;-24
2023/05/16 00:18:59;;;;;;;9.63;2.00;;;6.80;99.90;;;;;;5077902;28;20105;-24
2023/05/16 00:21:25;;;;;;;12.10;1.77;;;6.80;99.90;;;;;;5076070;28;20398;-24
2023/05/16 00:23:51;;;;;;;13.73;2.22;;;6.80;99.90;;;;;;5076960;28;20045;-24
2023/05/16 00:26:17;;;;;;;14.70;3.25;;;6.80;99.90;;;;;;5077439;28;20059;-24
2023/05/16 00:28:43;;;;;;;12.35;1.90;;;6.80;99.90;;;;;;5076747;28;20083;-24
2023/05/16 00:31:09;;;;;;;11.60;2.30;;;6.80;99.90;;;;;;5076838;28;20083;-24
2023/05/16 00:33:34;;;;;;;12.48;1.92;;;6.90;99.90;;;;;;5077332;28;20055;-24
2023/05/16 00:36:00;;;;;;;14.65;2.72;;;6.80;99.90;;;;;;5076759;28;20131;-24
2023/05/16 00:38:26;;;;;;;13.65;1.80;;;6.90;99.90;;;;;;5076716;28;20045;-24
2023/05/16 00:40:52;;;;;;;19.02;2.65;;;6.90;99.90;;;;;;5076354;28;20401;-24
2023/05/16 00:43:17;;;;;;;14.35;2.03;;;6.90;99.90;;;;;;5077424;28;20131;-24
2023/05/16 00:45:44;;;;;;;15.23;1.92;;;6.90;99.90;;;;;;5077097;28;20378;-24
2023/05/16 00:48:12;;;;;;;14.25;2.17;;;6.90;99.90;;;;;;5075248;28;20045;-25
2023/05/16 00:50:39;;;;;;;20.48;3.08;;;6.90;99.90;;;;;;5074951;28;20058;-25
2023/05/16 00:53:04;;;;;;;19.17;2.40;;;6.90;99.90;;;;;;5076301;28;20509;-25
2023/05/16 00:55:31;;;;;;;12.02;2.08;;;6.80;99.90;;;;;;5077206;28;20049;-24
2023/05/16 00:57:58;;;;;;;17.52;1.88;;;6.70;99.90;;;;;;5076286;28;20048;-24
2023/05/16 01:00:24;;;;;;;24.48;2.78;;;6.60;99.90;;;;;;5076834;28;20048;-24
2023/05/16 01:02:52;;;;;;;14.77;2.00;;;6.60;99.90;;;;;;5058291;28;20051;-24
2023/05/16 01:05:19;;;;;;;13.20;1.58;;;6.60;99.90;;;;;;5076167;28;20045;-24
2023/05/16 01:07:45;;;;;;;12.05;2.08;;;6.50;99.90;;;;;;5076590;28;20056;-25
2023/05/16 01:10:11;;;;;;;12.20;1.95;;;6.50;99.90;;;;;;5076656;28;20383;-25
2023/05/16 01:12:55;;;;;;;12.50;2.17;;;6.50;99.90;;;;;;5075428;28;20394;-24
2023/05/16 01:15:26;;;;;;;11.25;2.40;;;6.40;99.90;;;;;;5075972;28;20070;-24
2023/05/16 01:17:59;;;;;;;17.05;3.72;;;6.30;99.90;;;;;;5076025;28;20050;-24
2023/05/16 01:20:28;;;;;;;;;;;6.40;99.90;;;;;;5076423;28;20051;-24
2023/05/16 01:23:40;;;;;;;21.00;2.95;;;6.40;99.90;;;;;;5076421;28;20304;-24
2023/05/16 01:26:22;;;;;;;18.75;2.38;;;6.40;99.90;;;;;;5068780;28;20064;-24
2023/05/16 01:28:49;;;;;;;12.43;1.60;;;6.40;99.90;;;;;;5075974;28;20044;-26
2023/05/16 01:31:15;;;;;;;17.70;2.05;;;6.30;99.90;;;;;;5075727;28;20487;-24
2023/05/16 01:33:41;;;;;;;15.20;2.75;;;6.30;99.90;;;;;;5058623;28;20079;-24
2023/05/16 01:36:23;;;;;;;15.63;3.35;;;6.30;99.90;;;;;;5074930;28;20059;-25
2023/05/16 01:38:54;;;;;;;16.00;1.95;;;6.30;99.90;;;;;;5075626;28;20482;-26
2023/05/16 01:41:41;;;;;;;23.02;3.72;;;6.40;99.90;;;;;;5075847;28;20162;-26
2023/05/16 01:44:17;;;;;;;15.20;2.83;;;6.50;99.90;;;;;;5074381;28;20087;-25
2023/05/16 01:46:46;;;;;;;11.30;2.25;;;6.40;99.90;;;;;;5076100;28;20040;-24
2023/05/16 01:50:00;;;;;;;19.77;2.60;;;6.40;99.90;;;;;;5057425;28;20048;-24
2023/05/16 01:52:27;;;;;;;14.02;2.10;;;6.30;99.90;;;;;;5071490;28;20052;-24
2023/05/16 01:54:56;;;;;;;14.73;2.38;;;6.30;99.90;;;;;;5075152;28;20049;-24
2023/05/16 01:57:25;;;;;;;13.98;1.88;;;6.10;99.90;;;;;;5073736;28;20453;-24
2023/05/16 01:59:52;;;;;;;16.23;3.70;;;6.10;99.90;;;;;;5057465;28;20056;-24
2023/05/16 02:02:18;;;;;;;11.07;1.92;;;6.10;99.90;;;;;;5074132;28;20041;-24
2023/05/16 02:04:44;;;;;;;20.05;3.53;;;6.10;99.90;;;;;;5075031;28;20041;-25
2023/05/16 02:07:13;;;;;;;19.88;2.13;;;6.20;99.90;;;;;;5057246;28;20119;-25
2023/05/16 02:09:38;;;;;;;15.48;2.72;;;6.30;99.90;;;;;;5073952;28;20052;-24
2023/05/16 02:12:04;;;;;;;24.08;3.20;;;6.40;99.90;;;;;;5074948;28;20044;-24
2023/05/16 02:14:30;;;;;;;13.63;2.03;;;6.40;99.90;;;;;;5074512;28;20040;-24
2023/05/16 02:16:56;;;;;;;20.13;2.60;;;6.50;99.90;;;;;;5074863;28;20375;-25
2023/05/16 02:19:22;;;;;;;19.35;1.92;;;6.70;99.90;;;;;;5074614;28;20052;-25
2023/05/16 02:21:49;;;;;;;16.73;2.40;;;6.80;99.90;;;;;;5073506;28;20049;-24
2023/05/16 02:24:14;;;;;;;20.20;3.35;;;7.00;99.90;;;;;;5075473;28;20047;-25
2023/05/16 02:26:40;;;;;;;10.98;2.58;;;7.00;99.90;;;;;;5056764;28;20044;-25
2023/05/16 02:29:06;;;;;;;11.98;2.40;;;7.10;99.90;;;;;;5073640;28;20143;-25
2023/05/16 02:31:33;;;;;;;15.43;2.22;;;7.00;99.90;;;;;;5074533;28;20037;-25
2023/05/16 02:34:00;;;;;;;13.38;2.17;;;7.00;99.90;;;;;;5075037;28;20098;-26
2023/05/16 02:36:25;;;;;;;10.15;2.45;;;7.00;99.90;;;;;;5074430;28;20483;-26
2023/05/16 02:38:51;;;;;;;16.50;1.95;;;7.00;99.90;;;;;;5073826;28;20051;-25
2023/05/16 02:41:17;;;;;;;11.48;1.83;;;7.00;99.90;;;;;;5074334;28;20052;-25
2023/05/16 02:43:43;;;;;;;15.25;2.50;;;7.00;99.90;;;;;;5074301;28;20049;-25
2023/05/16 02:46:26;;;;;;;16.05;2.40;;;7.00;99.90;;;;;;5073944;28;20049;-24
2023/05/16 02:48:52;;;;;;;10.30;1.97;;;6.90;99.90;;;;;;5057262;28;20072;-25
2023/05/16 02:51:20;;;;;;;10.20;1.65;;;6.80;99.90;;;;;;5074440;28;20402;-25
2023/05/16 02:53:46;;;;;;;12.75;2.22;;;6.70;99.90;;;;;;5074063;28;20123;-24
2023/05/16 02:56:12;;;;;;;11.93;1.92;;;6.70;99.90;;;;;;5074096;28;20053;-25
2023/05/16 02:58:37;;;;;;;14.18;1.83;;;6.80;99.90;;;;;;5074060;28;20105;-25
2023/05/16 03:01:03;;;;;;;14.40;1.90;;;6.80;99.90;;;;;;5074289;28;20141;-25
2023/05/16 03:03:29;;;;;;;13.48;2.10;;;6.80;99.90;;;;;;5073343;28;20045;-26
2023/05/16 03:05:55;;;;;;;18.60;4.47;;;6.90;99.90;;;;;;5073951;28;20044;-26
2023/05/16 03:08:20;;;;;;;10.70;2.42;;;6.80;99.90;;;;;;5073412;28;20352;-26
2023/05/16 03:10:46;;;;;;;13.15;2.08;;;6.80;99.90;;;;;;5039297;28;20050;-25
2023/05/16 03:13:12;;;;;;;11.60;1.95;;;6.80;99.90;;;;;;5073856;28;20048;-25
2023/05/16 03:15:37;;;;;;;18.30;2.30;;;6.90;99.90;;;;;;5073827;28;20502;-25
2023/05/16 03:18:03;;;;;;;12.48;1.75;;;6.90;99.90;;;;;;5073798;28;20549;-26
2023/05/16 03:20:29;;;;;;;14.90;2.95;;;6.90;99.90;;;;;;5072650;28;20044;-25
2023/05/16 03:22:55;;;;;;;13.73;2.00;;;6.80;99.90;;;;;;5074282;28;20068;-26
2023/05/16 03:25:20;;;;;;;13.85;1.92;;;6.80;99.90;;;;;;5072599;28;20123;-26
2023/05/16 03:27:46;;;;;;;14.57;2.65;;;6.90;99.90;;;;;;5072645;28;20045;-26
2023/05/16 03:30:12;;;;;;;13.93;1.80;;;7.00;99.90;;;;;;5073659;28;20127;-26
2023/05/16 03:32:38;;;;;;;11.35;2.00;;;6.90;99.90;;;;;;5073633;28;20036;-25
2023/05/16 03:35:04;;;;;;;15.13;1.80;;;6.80;99.90;;;;;;5073268;28;20109;-24
2023/05/16 03:37:30;;;;;;;13.98;1.90;;;6.60;99.90;;;;;;5072895;28;20198;-25
2023/05/16 03:39:56;;;;;;;16.73;2.50;;;6.50;99.90;;;;;;5072315;28;20064;-24
2023/05/16 03:42:22;;;;;;;11.73;1.58;;;6.60;99.90;;;;;;5072347;28;20056;-27
2023/05/16 03:44:48;;;;;;;12.10;1.88;;;6.60;99.90;;;;;;5073443;28;20106;-26
2023/05/16 03:47:13;;;;;;;14.25;1.80;;;6.80;99.90;;;;;;5073894;28;20449;-25
2023/05/16 03:49:39;;;;;;;14.40;2.60;;;6.80;99.90;;;;;;5072382;28;20045;-25
2023/05/16 03:52:05;;;;;;;8.80;1.67;;;6.80;99.90;;;;;;5076379;28;20414;-26
2023/05/16 03:54:32;;;;;;;13.65;1.70;;;6.90;99.90;;;;;;5077457;28;20094;-26
2023/05/16 03:56:57;;;;;;;15.30;1.95;;;7.00;99.90;;;;;;5077433;28;20053;-26
2023/05/16 03:59:23;;;;;;;12.82;2.80;;;7.00;99.90;;;;;;5077436;28;20047;-26
2023/05/16 04:01:49;;;;;;;11.80;1.50;;;7.10;99.90;;;;;;5077856;28;20064;-26
2023/05/16 04:04:14;;;;;;;8.05;1.38;;;7.10;99.90;;;;;;5076668;28;20079;-26
2023/05/16 04:06:40;;;;;;;12.13;1.50;;;6.90;99.90;;;;;;5075774;28;20487;-26
2023/05/16 04:09:06;;;;;;;11.27;1.85;;;6.90;99.90;;;;;;5075864;28;20055;-26
2023/05/16 04:11:33;;;;;;;13.00;1.70;;;6.90;99.90;;;;;;5076247;28;20132;-26
2023/05/16 04:14:00;;;;;;;12.65;2.13;;;6.80;99.90;;;;;;5076367;28;20119;-26
2023/05/16 04:16:26;;;;;;;10.13;1.60;;;6.70;99.90;;;;;;5077654;28;20067;-26
2023/05/16 04:18:52;;;;;;;9.48;1.52;;;6.70;99.90;;;;;;5077010;28;20170;-26
2023/05/16 04:21:18;;;;;;;12.38;1.80;;;6.70;99.90;;;;;;5075740;28;20491;-26
2023/05/16 04:23:43;;;;;;;8.55;1.65;;;6.70;99.90;;;;;;5076564;28;20067;-26
2023/05/16 04:26:09;;;;;;;10.75;1.63;;;6.70;99.90;;;;;;5076855;28;20174;-26
2023/05/16 04:28:35;;;;;;;15.45;2.03;;;6.80;99.90;;;;;;5075565;28;20044;-26
2023/05/16 04:31:01;;;;;;;11.02;2.45;;;7.00;99.90;;;;;;5077659;28;20113;-26
2023/05/16 04:33:27;;;;;;;12.13;1.83;;;7.30;99.90;;;;;;5076759;28;20056;-27
2023/05/16 04:35:53;;;;;;;14.73;2.40;;;7.50;99.90;;;;;;5076004;28;20149;-26
2023/05/16 04:38:19;;;;;;;9.60;1.70;;;7.70;99.90;;;;;;5076423;28;20494;-26
2023/05/16 04:40:45;;;;;;;11.25;1.88;;;7.80;99.90;;;;;;5077037;28;20065;-26
2023/05/16 04:43:11;;;;;;;13.65;2.17;;;7.80;99.90;;;;;;5076915;28;20604;-26
2023/05/16 04:45:37;;;;;;;8.02;1.40;;;7.90;99.90;;;;;;5076494;28;20048;-26
2023/05/16 04:48:02;;;;;;;10.38;1.45;;;7.80;99.90;;;;;;5076182;28;20383;-26
2023/05/16 04:50:28;;;;;;;13.07;1.63;;;7.70;99.90;;;;;;5076432;28;20048;-26
2023/05/16 04:52:54;;;;;;;7.60;1.20;;;7.60;99.90;;;;;;5077033;28;20047;-26
2023/05/16 04:55:20;;;;;;;13.60;1.45;;;7.80;99.90;;;;;;5075152;28;20588;-26
2023/05/16 04:57:45;;;;;;;14.10;1.83;;;8.00;99.90;;;;;;5075653;28;20425;-26
2023/05/16 05:00:12;;;;;;;12.70;1.67;;;8.00;99.90;;;;;;5076283;28;20055;-26
2023/05/16 05:02:38;;;;;;;7.40;1.40;;;8.10;99.90;;;;;;5057748;28;20109;-26
2023/05/16 05:05:05;;;;;;;11.95;1.65;;;8.10;99.90;;;;;;5075441;28;20049;-26
2023/05/16 05:07:32;;;;;;;13.02;1.33;;;8.30;99.90;;;;;;5075956;28;20044;-26
2023/05/16 05:09:57;;;;;;;9.68;1.73;;;8.40;99.90;;;;;;5076125;28;20059;-26
2023/05/16 05:12:24;;;;;;;9.00;1.77;;;8.60;99.90;;;;;;5076061;28;20394;-26
2023/05/16 05:14:50;;;;;;;15.95;2.25;;;8.70;73.20;;;;;;5075975;28;20376;-26
2023/05/16 05:17:16;;;;;;;13.07;2.47;;;8.80;1.00;;;;;;5075941;28;20052;-27
2023/05/16 05:19:42;;;;;;;12.68;1.75;;;8.90;1.00;;;;;;5075933;28;20048;-26
2023/05/16 05:22:08;;;;;;;10.82;1.98;;;8.90;1.00;;;;;;5075853;28;20053;-27
2023/05/16 05:24:33;;;;;;;14.98;1.58;;;9.00;1.00;;;;;;5076341;28;20048;-26
2023/05/16 05:26:59;;;;;;;8.50;1.70;;;9.20;1.00;;;;;;5075792;28;20048;-27
2023/05/16 05:29:25;;;;;;;7.88;1.23;;;;;;;;;;5075715;28;20045;-26
2023/05/16 05:31:51;;;;;;;9.82;1.60;;;;;;;;;;5075609;28;20052;-26
2023/05/16 05:34:17;;;;;;;10.68;1.42;;;11.10;1.00;;;;;;5075644;28;20056;-27
2023/05/16 05:36:43;;;;;;;8.93;1.52;;;11.30;1.00;;;;;;5075608;28;20116;-27
2023/05/16 05:39:09;;;;;;;8.40;1.23;;;10.90;99.90;;;;;;5075999;28;20390;-26
2023/05/16 05:41:36;;;;;;;11.10;1.50;;;10.60;99.90;;;;;;5075065;28;20064;-27
2023/05/16 05:44:02;;;;;;;10.20;2.08;;;10.00;99.90;;;;;;5075385;28;20132;-26
2023/05/16 05:46:27;;;;;;;9.75;2.22;;;9.50;1.00;;;;;;5075395;28;20084;-26
2023/05/16 05:48:53;;;;;;;14.20;2.78;;;9.10;87.70;;;;;;5075272;28;20490;-26
2023/05/16 05:51:19;;;;;;;14.52;1.73;;;9.10;99.90;;;;;;5075339;28;20040;-27
2023/05/16 05:53:45;;;;;;;14.43;1.80;;;9.00;99.90;;;;;;5075186;28;20132;-26
2023/05/16 05:56:11;;;;;;;10.60;1.40;;;9.40;79.70;;;;;;5075281;28;20426;-27
2023/05/16 05:58:40;;;;;;;9.13;1.67;;;10.20;1.00;;;;;;5075972;28;20048;-26
2023/05/16 06:01:06;;;;;;;14.88;1.83;;;11.10;99.90;;;;;;5074909;28;20506;-27
2023/05/16 06:03:32;;;;;;;6.05;0.85;;;10.80;99.90;;;;;;5074893;28;20082;-26
2023/05/16 06:05:57;;;;;;;7.00;0.93;;;10.30;99.90;;;;;;5075006;28;20051;-27
2023/05/16 06:08:23;;;;;;;8.10;0.98;;;9.90;99.90;;;;;;5074883;28;20132;-26
2023/05/16 06:10:49;;;;;;;4.03;0.85;;;9.60;97.10;;;;;;5073740;28;20048;-26
2023/05/16 06:13:15;;;;;;;4.10;0.57;;;10.20;1.00;;;;;;5074709;28;20044;-27
2023/05/16 06:15:40;;;;;;;3.55;0.63;;;10.70;1.00;;;;;;5073358;28;20056;-26
2023/05/16 06:18:06;;;;;;;12.00;1.05;;;10.90;1.00;;;;;;5074725;28;20047;-26
2023/05/16 06:20:32;;;;;;;5.85;1.25;;;11.10;1.00;;;;;;5074735;28;20131;-26
2023/05/16 06:22:58;;;;;;;7.10;1.60;;;11.30;99.90;;;;;;5074642;28;20051;-27
2023/05/16 06:25:23;;;;;;;9.07;1.73;;;11.60;1.00;;;;;;5073490;28;20052;-26
2023/05/16 06:27:49;;;;;;;7.78;0.95;;;11.70;1.00;;;;;;5073495;28;20383;-26
2023/05/16 06:30:15;;;;;;;6.15;0.90;;;11.60;1.00;;;;;;5073893;28;20045;-26
2023/05/16 06:32:41;;;;;;;4.22;0.80;;;11.30;99.90;;;;;;5073369;28;20133;-26
2023/05/16 06:35:08;;;;;;;8.07;0.98;;;11.50;1.00;;;;;;5074390;28;20550;-26
2023/05/16 06:37:34;;;;;;;5.50;1.05;;;11.70;99.90;;;;;;5074417;28;20052;-27
2023/05/16 06:39:59;;;;;;;5.10;0.95;;;11.50;99.90;;;;;;5073896;28;20509;-26
2023/05/16 06:42:25;;;;;;;9.32;1.20;;;11.60;1.00;;;;;;5075231;28;20060;-26
2023/05/16 06:44:51;;;;;;;7.45;1.25;;;11.80;99.90;;;;;;5074290;28;20051;-26
2023/05/16 06:47:17;;;;;;;9.10;2.03;;;12.10;99.90;;;;;;5074500;28;20071;-26
2023/05/16 06:49:42;;;;;;;11.43;1.70;;;12.40;59.70;;;;;;5074693;28;20394;-27
2023/05/16 06:52:08;;;;;;;18.05;3.13;;;12.40;1.00;;;;;;5074119;28;20098;-26
2023/05/16 06:54:34;;;;;;;9.57;1.58;;;12.60;1.00;;;;;;5073961;28;20162;-27
2023/05/16 06:57:00;;;;;;;8.88;1.10;;;12.50;14.50;;;;;;5074286;28;20052;-26
2023/05/16 06:59:25;;;;;;;14.38;1.95;;;12.00;99.90;;;;;;5073082;28;20037;-28
2023/05/16 07:01:51;;;;;;;9.48;1.73;;;11.10;99.90;;;;;;5074177;28;20123;-26
2023/05/16 07:04:17;;;;;;;13.43;1.55;;;10.50;1.00;;;;;;5073958;28;20049;-26
2023/05/16 07:06:42;;;;;;;12.40;1.45;;;10.20;1.00;;;;;;5073904;28;20067;-26
2023/05/16 07:09:08;;;;;;;8.63;1.73;;;9.90;78.00;;;;;;5072254;28;20040;-27
2023/05/16 07:11:34;;;;;;;11.70;1.52;;;9.70;95.20;;;;;;5074383;28;20049;-27
2023/05/16 07:13:59;;;;;;;7.18;1.40;;;9.60;99.90;;;;;;5073805;28;20048;-27
2023/05/16 07:16:27;;;;;;;9.57;1.45;;;10.10;1.00;;;;;;5072583;28;20048;-27
2023/05/16 07:18:53;;;;;;;14.02;2.00;;;11.30;99.90;;;;;;5073000;28;20059;-27
2023/05/16 07:21:19;;;;;;;10.60;1.20;;;12.30;1.00;;;;;;5056872;28;20394;-27
2023/05/16 07:23:45;;;;;;;7.82;1.13;;;12.00;99.90;;;;;;5055692;28;20127;-26
2023/05/16 07:26:11;;;;;;;7.28;1.30;;;11.70;1.00;;;;;;5072289;28;20047;-26
2023/05/16 07:28:37;;;;;;;8.65;2.33;;;12.10;1.00;;;;;;5073633;28;20048;-26
2023/05/16 07:31:02;;;;;;;6.63;1.15;;;11.80;99.90;;;;;;5072661;28;20487;-25
2023/05/16 07:33:28;;;;;;;8.48;1.90;;;12.00;99.90;;;;;;5084705;28;20043;-26
2023/05/16 08:37:05;;;;;;;9.57;1.63;;;12.80;99.90;;;;;;5078347;27;1288128;-28
2023/05/16 08:39:31;;;;;;;7.05;1.27;;;12.80;99.90;;;;;;5124484;28;20047;-29
2023/05/16 08:41:57;;;;;;;7.72;1.50;;;12.20;1.00;;;;;;5131749;27;20062;-28
2023/05/16 08:44:23;;;;;;;9.20;1.25;;;12.60;1.00;;;;;;5130151;27;20091;-30
2023/05/16 08:46:51;;;;;;;13.32;1.67;;;13.10;1.00;;;;;;5131679;28;20075;-28
2023/05/16 08:49:18;;;;;;;5.25;1.30;;;12.70;99.90;;;;;;5130980;27;20057;-25
2023/05/16 08:51:46;;;;;;;7.65;1.60;;;12.40;1.00;;;;;;5131173;28;20040;-29
2023/05/16 08:54:13;;;;;;;10.65;1.67;;;11.80;1.00;;;;;;5132029;28;20402;-30
2023/05/16 08:56:40;;;;;;;9.30;1.45;;;12.30;1.00;;;;;;5130284;28;20054;-28
2023/05/16 08:59:06;;;;;;;5.88;1.23;;;11.90;99.90;;;;;;5129991;28;20047;-29
2023/05/16 09:01:33;;;;;;;10.27;2.30;;;11.40;1.00;;;;;;5131351;28;20055;-28
2023/05/16 09:03:59;;;;;;;7.40;1.63;;;11.20;99.90;;;;;;5131293;28;20092;-29
2023/05/16 09:06:26;;;;;;;9.95;1.23;;;12.10;94.70;;;;;;5131186;28;20031;-28
2023/05/16 09:08:55;;;;;;;5.07;1.13;;;12.50;99.90;;;;;;5130233;28;20543;-29
2023/05/16 09:11:21;;;;;;;10.00;1.83;;;11.80;99.90;;;;;;5130252;28;20040;-29
2023/05/16 09:13:48;;;;;;;7.82;1.50;;;11.30;75.00;;;;;;5129956;28;20135;-28
2023/05/16 09:16:16;;;;;;;8.07;1.45;;;11.90;99.90;;;;;;5130773;28;20035;-29
2023/05/16 09:18:44;;;;;;;8.27;1.90;;;12.80;99.90;;;;;;5119272;27;20055;-29
2023/05/16 09:21:10;;;;;;;5.72;1.20;;;13.50;1.00;;;;;;5110511;28;20056;-28
2023/05/16 09:23:36;;;;;;;11.13;1.38;;;13.30;1.00;;;;;;5109329;28;20087;-30
2023/05/16 09:26:06;;;;;;;9.63;2.60;;;12.30;95.20;;;;;;5110516;28;20510;-29
2023/05/16 09:28:33;;;;;;;10.65;1.35;;;12.50;9.70;;;;;;5110261;28;20047;-28
2023/05/16 09:30:58;;;;;;;10.43;1.73;;;13.50;99.90;;;;;;5093339;28;20047;-28
2023/05/16 09:33:28;;;;;;;9.50;1.65;;;13.60;1.00;;;;;;5110226;28;20051;-29
2023/05/16 09:35:56;;;;;;;8.05;1.83;;;13.00;99.90;;;;;;5108507;28;20052;-28
2023/05/16 09:38:21;;;;;;;8.18;1.05;;;12.70;99.90;;;;;;5096088;28;20097;-28
2023/05/16 09:40:49;;;;;;;10.10;1.33;;;12.20;99.90;;;;;;5096167;28;20512;-28
2023/05/16 09:43:15;;;;;;;13.63;2.13;;;11.80;24.80;;;;;;5097281;28;20044;-30
2023/05/16 09:45:46;;;;;;;8.98;1.38;;;11.90;99.90;;;;;;5095159;28;20131;-29
2023/05/16 09:48:13;;;;;;;7.00;1.63;;;12.90;70.20;;;;;;5095154;28;20047;-29
2023/05/16 09:50:39;;;;;;;10.80;1.30;;;13.80;1.00;;;;;;5095406;28;20090;-28
2023/05/16 09:53:05;;;;;;;10.07;1.83;;;13.60;1.00;;;;;;5095130;28;20048;-28
2023/05/16 09:55:31;;;;;;;11.05;1.80;;;13.70;7.30;;;;;;5078304;28;20376;-28
2023/05/16 09:57:57;;;;;;;6.82;1.55;;;13.60;1.00;;;;;;5096161;28;20101;-28
2023/05/16 10:00:31;;;;;;;8.13;1.08;;;13.10;1.00;;;;;;5096168;28;20052;-28
2023/05/16 10:02:58;;;;;;;6.43;1.40;;;12.30;58.60;;;;;;5096146;28;20048;-28
2023/05/16 10:05:27;;;;;;;5.60;1.63;;;11.80;1.00;;;;;;5095986;28;20123;-29
2023/05/16 10:07:55;;;;;;;10.95;2.05;;;12.70;99.90;;;;;;5096765;28;20044;-28
2023/05/16 10:10:22;;;;;;;7.30;1.25;;;13.00;44.00;;;;;;5096566;28;20126;-29
2023/05/16 10:12:48;;;;;;;6.05;1.27;;;12.80;99.90;;;;;;5095857;28;20555;-29
2023/05/16 10:15:16;;;;;;;6.72;1.73;;;13.10;99.90;;;;;;5095859;28;20044;-29
2023/05/16 10:17:44;;;;;;;8.90;1.50;;;12.40;99.90;;;;;;5095665;28;20128;-28
2023/05/16 10:20:11;;;;;;;10.32;1.42;;;13.00;23.80;;;;;;5095705;28;20126;-28
2023/05/16 10:22:43;;;;;;;5.90;1.45;;;13.70;99.90;;;;;;5096238;28;20048;-29
2023/05/16 10:25:37;;;;;;;6.80;1.08;;;14.10;1.00;;;;;;5095541;28;20086;-28
2023/05/16 10:28:03;;;;;;;9.35;1.67;;;14.50;99.90;;;;;;5096207;28;20047;-28
2023/05/16 10:30:30;;;;;;;6.57;1.33;;;14.90;99.90;;;;;;5077724;28;20482;-28
2023/05/16 10:32:58;;;;;;;6.35;1.10;;;13.50;99.90;;;;;;5095528;28;20066;-28
2023/05/16 10:35:23;;;;;;;7.40;1.00;;;13.10;99.90;;;;;;5095386;28;20060;-28
2023/05/16 10:37:50;;;;;;;8.43;1.30;;;13.60;1.00;;;;;;5095539;28;20059;-28
2023/05/16 10:40:16;;;;;;;5.53;1.02;;;14.50;1.00;;;;;;5095421;28;20104;-29
2023/05/16 10:42:59;;;;;;;10.02;1.20;;;14.70;1.00;;;;;;5077339;28;20123;-29
2023/05/16 10:45:25;;;;;;;9.00;1.55;;;14.40;1.00;;;;;;5095246;28;20044;-28
2023/05/16 10:47:52;;;;;;;6.95;1.65;;;14.40;1.00;;;;;;5095162;28;20515;-28
2023/05/16 10:50:37;;;;;;;8.00;1.25;;;14.10;1.00;;;;;;5095618;28;20050;-29
2023/05/16 10:53:12;;;;;;;5.90;1.05;;;13.60;99.90;;;;;;5095658;28;20052;-28
2023/05/16 10:55:39;;;;;;;8.35;1.70;;;13.20;99.90;;;;;;5095090;28;20351;-29
2023/05/16 10:58:04;;;;;;;9.00;1.50;;;13.30;99.90;;;;;;5095122;28;20043;-28
2023/05/16 11:00:30;;;;;;;6.43;1.25;;;13.80;99.90;;;;;;5095174;28;20052;-28
2023/05/16 11:03:05;;;;;;;6.82;1.40;;;14.40;99.90;;;;;;5094862;28;20044;-28
2023/05/16 11:05:32;;;;;;;6.82;1.02;;;14.50;99.90;;;;;;5094857;28;20058;-28
2023/05/16 11:08:08;;;;;;;7.32;1.17;;;14.50;1.00;;;;;;5094807;28;20044;-29
2023/05/16 11:10:33;;;;;;;8.35;1.52;;;13.90;1.00;;;;;;5094639;28;20062;-28
2023/05/16 11:13:07;;;;;;;5.45;1.30;;;13.20;99.90;;;;;;5094607;28;20479;-29
2023/05/16 11:15:33;;;;;;;;;;;12.80;22.60;;;;;;5095184;28;20467;-29
2023/05/16 11:18:13;;;;;;;7.25;1.45;;;12.70;1.00;;;;;;5094719;28;19920;-28
2023/05/16 11:20:40;;;;;;;7.13;2.15;;;13.10;99.90;;;;;;5093350;28;20043;-27
2023/05/16 11:23:17;;;;;;;5.47;1.63;;;13.10;99.90;;;;;;5094347;28;20510;-27
2023/05/16 11:25:52;;;;;;;12.45;1.80;;;13.20;99.90;;;;;;5093230;28;20106;-28
2023/05/16 11:28:19;;;;;;;8.82;1.45;;;13.80;16.40;;;;;;5094398;28;20055;-28
2023/05/16 11:30:51;;;;;;;10.15;1.58;;;14.20;1.00;;;;;;5076493;28;20497;-28
2023/05/16 11:33:18;;;;;;;8.25;1.38;;;14.10;99.90;;;;;;5094364;28;20148;-27
2023/05/16 11:36:08;;;;;;;6.60;1.45;;;13.60;1.00;;;;;;5093080;28;20059;-27
2023/05/16 11:38:34;;;;;;;6.13;1.67;;;13.10;99.90;;;;;;5094320;28;20056;-27
2023/05/16 11:41:10;;;;;;;7.72;1.77;;;12.90;99.90;;;;;;5094178;28;20051;-28
2023/05/16 11:43:42;;;;;;;8.75;2.10;;;12.60;99.90;;;;;;5094222;28;20051;-27
2023/05/16 11:46:12;;;;;;;5.88;1.40;;;12.60;99.90;;;;;;5094114;28;20048;-28
2023/05/16 11:48:38;;;;;;;9.73;1.95;;;12.50;99.90;;;;;;5076215;28;20486;-26
2023/05/16 11:51:04;;;;;;;8.70;1.77;;;13.20;61.30;;;;;;5094600;28;20051;-27
2023/05/16 11:53:30;;;;;;;10.90;2.47;;;13.00;99.90;;;;;;5093981;28;20051;-27
2023/05/16 11:55:55;;;;;;;13.60;2.70;;;12.90;99.90;;;;;;5092961;28;20047;-27
2023/05/16 11:58:21;;;;;;;8.57;1.50;;;13.30;99.90;;;;;;5093979;28;20395;-27
2023/05/16 12:00:49;;;;;;;9.90;1.90;;;13.50;1.00;;;;;;5075615;28;20048;-28
2023/05/16 12:03:15;;;;;;;7.82;2.25;;;13.10;99.90;;;;;;5093878;28;20055;-27
2023/05/16 12:05:53;;;;;;;6.15;1.55;;;12.90;6.80;;;;;;5093794;28;20417;-28
2023/05/16 12:08:20;;;;;;;8.02;1.70;;;12.90;99.90;;;;;;5093589;28;20410;-27
2023/05/16 12:10:49;;;;;;;7.82;1.80;;;12.80;90.50;;;;;;5092938;28;20051;-27
2023/05/16 12:13:15;;;;;;;7.50;2.35;;;13.00;99.90;;;;;;5076076;28;20058;-28
2023/05/16 12:15:42;;;;;;;8.52;2.00;;;13.60;1.00;;;;;;5093566;28;20054;-27
2023/05/16 12:18:08;;;;;;;7.80;1.60;;;14.30;99.90;;;;;;5093682;28;20052;-28
2023/05/16 12:20:34;;;;;;;10.20;2.35;;;14.50;99.90;;;;;;5094265;28;20131;-28
2023/05/16 12:23:00;;;;;;;6.18;2.65;;;14.30;99.90;;;;;;5093738;28;20134;-28
2023/05/16 12:25:27;;;;;;;10.05;2.17;;;14.10;63.30;;;;;;5094159;28;20044;-27
2023/05/16 12:27:54;;;;;;;9.05;2.33;;;13.70;99.90;;;;;;5092698;28;20062;-27
2023/05/16 12:30:24;;;;;;;7.40;2.38;;;13.50;1.00;;;;;;5092893;28;20094;-28
2023/05/16 12:33:01;;;;;;;9.98;2.50;;;13.40;99.90;;;;;;5093377;28;20424;-27
2023/05/16 12:35:32;;;;;;;13.55;2.50;;;13.10;99.90;;;;;;5093344;28;20073;-27
2023/05/16 12:37:58;;;;;;;7.30;2.42;;;12.40;99.90;;;;;;5093551;28;20048;-27
2023/05/16 12:40:28;;;;;;;14.82;4.63;;;12.20;1.00;;;;;;5093533;28;20097;-28
2023/05/16 12:42:53;;;;;;;11.32;2.72;;;12.80;1.00;;;;;;5094154;28;20083;-29
2023/05/16 12:45:21;;;;;;;5.40;2.03;;;13.30;99.90;;;;;;5094192;28;20082;-28
2023/05/16 12:47:48;;;;;;;13.70;3.20;;;13.40;71.40;;;;;;5093419;28;20508;-28
2023/05/16 12:50:16;;;;;;;12.88;2.60;;;13.00;99.90;;;;;;5093129;28;20490;-27
2023/05/16 12:52:58;;;;;;;14.88;4.10;;;12.60;99.90;;;;;;5093477;28;20166;-27
2023/05/16 12:55:23;;;;;;;6.95;2.38;;;12.50;99.90;;;;;;5092715;28;20094;-28
2023/05/16 12:57:50;;;;;;;5.97;2.15;;;12.30;99.90;;;;;;5093296;28;20076;-27
2023/05/16 13:00:18;;;;;;;5.07;1.20;;;12.20;99.90;;;;;;5093862;28;20083;-27
2023/05/16 13:02:45;;;;;;;5.05;1.42;;;12.70;77.00;;;;;;5093791;28;20127;-27
2023/05/16 13:05:11;;;;;;;4.50;1.60;;;13.20;1.00;;;;;;5093180;28;20443;-26
2023/05/16 13:07:40;;;;;;;4.65;1.67;;;13.40;1.00;;;;;;5093205;28;20086;-28
2023/05/16 13:10:09;;;;;;;4.40;1.50;;;13.90;99.90;;;;;;5093190;28;20093;-28
2023/05/16 13:12:36;;;;;;;7.13;2.05;;;13.60;99.90;;;;;;5095444;28;20044;-27
2023/05/16 13:15:01;;;;;;;5.93;1.75;;;13.00;99.90;;;;;;5096974;28;20082;-27
2023/05/16 13:17:29;;;;;;;9.35;1.77;;;12.70;99.90;;;;;;5096004;28;20088;-28
2023/05/16 13:19:55;;;;;;;6.43;1.95;;;12.40;99.90;;;;;;5096909;28;20044;-27
2023/05/16 13:22:20;;;;;;;6.18;2.10;;;11.80;23.30;;;;;;5097664;28;20066;-28
2023/05/16 13:24:46;;;;;;;5.85;1.80;;;11.50;1.00;;;;;;5096588;28;20471;-27
2023/05/16 13:27:15;;;;;;;10.10;2.95;;;11.30;99.90;;;;;;5095575;28;20040;-27
2023/05/16 13:29:41;;;;;;;14.43;3.35;;;11.30;1.00;;;;;;5096729;28;20040;-27
2023/05/16 13:32:07;;;;;;;12.23;3.05;;;11.30;99.90;;;;;;5095553;28;20071;-27
2023/05/16 13:34:32;;;;;;;5.65;2.35;;;11.30;99.90;;;;;;5097112;28;20047;-26
2023/05/16 13:36:58;;;;;;;5.32;1.50;;;11.20;1.00;;;;;;5095271;28;20048;-27
2023/05/16 13:39:24;;;;;;;6.60;2.13;;;10.70;99.90;;;;;;5095792;28;20486;-27
2023/05/16 13:41:50;;;;;;;5.97;1.15;;;10.80;99.90;;;;;;5096465;28;20048;-26
2023/05/16 13:44:16;;;;;;;5.53;2.25;;;10.70;99.90;;;;;;5096518;28;20051;-26
2023/05/16 13:46:42;;;;;;;7.15;2.22;;;10.80;1.00;;;;;;5096317;28;20036;-27
2023/05/16 13:49:08;;;;;;;7.25;2.95;;;11.00;1.00;;;;;;5096303;28;20051;-26
2023/05/16 13:51:34;;;;;;;9.93;2.95;;;11.30;39.10;;;;;;5096300;28;20043;-26
2023/05/16 13:54:00;;;;;;;5.10;2.03;;;11.60;1.00;;;;;;5095908;28;20063;-27